createdAt,value
2018-09-19T00:00:42.418Z,58.79
2018-09-19T00:01:42.545Z,58.63
2018-09-19T00:02:42.457Z,59.02
2018-09-19T00:03:42.434Z,58.78
2018-09-19T00:04:42.409Z,58.66
2018-09-19T00:05:42.975Z,58.47
2018-09-19T00:06:42.394Z,58.73
2018-09-19T00:07:42.470Z,58.69
2018-09-19T00:08:43.320Z,58.52
2018-09-19T00:09:42.411Z,58.67
2018-09-19T00:10:42.412Z,58.57
2018-09-19T00:11:42.376Z,58.52
2018-09-19T00:12:42.383Z,58.8
2018-09-19T00:13:42.510Z,58.88
2018-09-19T00:14:42.585Z,59.12
2018-09-19T00:15:42.453Z,59.08
2018-09-19T00:16:42.395Z,59.39
2018-09-19T00:17:42.481Z,59.13
2018-09-19T00:18:42.386Z,58.89
2018-09-19T00:19:42.877Z,58.76
2018-09-19T00:20:42.422Z,58.96
2018-09-19T00:21:42.442Z,59.21
2018-09-19T00:22:42.369Z,59.02
2018-09-19T00:23:42.376Z,59.25
2018-09-19T00:24:42.450Z,59.58
2018-09-19T00:25:42.590Z,59.06
2018-09-19T00:26:42.728Z,59.87
2018-09-19T00:27:42.455Z,59.66
2018-09-19T00:28:42.385Z,59.91
2018-09-19T00:29:42.523Z,59.65
2018-09-19T00:30:42.385Z,60.05
2018-09-19T00:31:42.672Z,60.04
2018-09-19T00:32:42.594Z,59.72
2018-09-19T00:33:42.397Z,59.67
2018-09-19T00:34:42.402Z,59.76
2018-09-19T00:35:42.455Z,59.96
2018-09-19T00:36:42.453Z,60.01
2018-09-19T00:37:42.564Z,59.51
2018-09-19T00:38:42.559Z,59.73
2018-09-19T00:39:42.416Z,59.98
2018-09-19T00:40:42.420Z,59.81
2018-09-19T00:41:42.396Z,60.3
2018-09-19T00:42:42.503Z,60.25
2018-09-19T00:43:42.477Z,60.83
2018-09-19T00:44:42.779Z,60.78
2018-09-19T00:45:42.402Z,60.82
2018-09-19T00:46:42.427Z,60.93
2018-09-19T00:47:42.435Z,60.85
2018-09-19T00:48:42.632Z,60.38
2018-09-19T00:49:42.461Z,60.3
2018-09-19T00:50:42.408Z,61.01
2018-09-19T00:51:42.837Z,60.47
2018-09-19T00:52:42.455Z,60.82
2018-09-19T00:53:42.442Z,60.91
2018-09-19T00:54:42.460Z,60.98
2018-09-19T00:55:42.438Z,61.3
2018-09-19T00:56:42.600Z,60.88
2018-09-19T00:57:42.414Z,60.42
2018-09-19T00:58:42.629Z,60.76
2018-09-19T00:59:42.440Z,61.12
2018-09-19T01:00:42.660Z,61.29
2018-09-19T01:01:42.449Z,60.81
2018-09-19T01:02:42.407Z,61.81
2018-09-19T01:03:42.450Z,62.06
2018-09-19T01:04:42.413Z,61.89
2018-09-19T01:05:42.470Z,62.12
2018-09-19T01:06:42.449Z,62.19
2018-09-19T01:07:42.507Z,62.38
2018-09-19T01:08:42.475Z,62.33
2018-09-19T01:09:42.451Z,62.31
2018-09-19T01:10:42.713Z,62.46
2018-09-19T01:11:42.428Z,61.97
2018-09-19T01:12:42.457Z,61.56
2018-09-19T01:13:42.516Z,61.88
2018-09-19T01:14:42.435Z,62.36
2018-09-19T01:15:42.426Z,62.52
2018-09-19T01:16:42.428Z,62.42
2018-09-19T01:17:42.414Z,62.43
2018-09-19T01:18:42.413Z,62.25
2018-09-19T01:19:42.474Z,62.57
2018-09-19T01:20:42.596Z,62.4
2018-09-19T01:21:42.526Z,62.15
2018-09-19T01:22:42.776Z,62
2018-09-19T01:23:42.429Z,62.15
2018-09-19T01:24:42.424Z,62.48
2018-09-19T01:25:42.552Z,62.53
2018-09-19T01:26:42.501Z,62.14
2018-09-19T01:27:42.595Z,62.48
2018-09-19T01:28:42.472Z,62.06
2018-09-19T01:29:42.435Z,62.34
2018-09-19T01:30:42.451Z,61.91
2018-09-19T01:31:42.617Z,62.96
2018-09-19T01:32:42.786Z,62.78
2018-09-19T01:33:42.459Z,62.41
2018-09-19T01:34:42.440Z,62.3
2018-09-19T01:35:42.528Z,62.28
2018-09-19T01:36:42.621Z,62.88
2018-09-19T01:37:42.438Z,62.69
2018-09-19T01:38:42.465Z,62.03
2018-09-19T01:39:42.486Z,62.64
2018-09-19T01:40:42.507Z,62.46
2018-09-19T01:41:42.566Z,62.63
2018-09-19T01:42:42.467Z,62.68
2018-09-19T01:43:42.696Z,62.37
2018-09-19T01:44:42.589Z,62.28
2018-09-19T01:45:42.496Z,61.91
2018-09-19T01:46:42.481Z,61.94
2018-09-19T01:47:42.660Z,62.42
2018-09-19T01:48:43.364Z,62.2
2018-09-19T01:49:42.563Z,62.24
2018-09-19T01:50:42.457Z,62.27
2018-09-19T01:51:42.497Z,62.77
2018-09-19T01:52:42.461Z,62.59
2018-09-19T01:53:42.478Z,62.48
2018-09-19T01:54:42.643Z,62.57
2018-09-19T01:55:42.491Z,61.94
2018-09-19T01:56:42.481Z,62.13
2018-09-19T01:57:42.543Z,62.74
2018-09-19T01:58:42.801Z,62.9
2018-09-19T01:59:42.522Z,62.44
2018-09-19T02:00:42.753Z,62.73
2018-09-19T02:01:42.504Z,62.28
2018-09-19T02:02:42.528Z,62.78
2018-09-19T02:03:42.468Z,62.67
2018-09-19T02:04:42.722Z,62.63
2018-09-19T02:05:42.578Z,62.69
2018-09-19T02:06:42.486Z,62.61
2018-09-19T02:07:42.474Z,62.91
2018-09-19T02:08:43.042Z,63.23
2018-09-19T02:09:43.192Z,63.26
2018-09-19T02:10:42.543Z,63.08
2018-09-19T02:11:42.559Z,62.51
2018-09-19T02:12:42.584Z,62.62
2018-09-19T02:13:42.482Z,62.6
2018-09-19T02:14:42.509Z,62.99
2018-09-19T02:15:42.484Z,62.83
2018-09-19T02:16:42.640Z,62.69
2018-09-19T02:17:42.527Z,63.14
2018-09-19T02:18:42.645Z,63.41
2018-09-19T02:19:42.596Z,62.88
2018-09-19T02:20:42.570Z,63.28
2018-09-19T02:21:42.503Z,63
2018-09-19T02:22:42.579Z,63.54
2018-09-19T02:23:42.590Z,63.54
2018-09-19T02:24:42.600Z,63.03
2018-09-19T02:25:42.475Z,63.88
2018-09-19T02:26:42.561Z,64.06
2018-09-19T02:27:42.542Z,63.76
2018-09-19T02:28:43.032Z,63.84
2018-09-19T02:29:42.440Z,63.17
2018-09-19T02:30:42.520Z,64.17
2018-09-19T02:31:42.484Z,63.92
2018-09-19T02:32:42.596Z,64.21
2018-09-19T02:33:42.499Z,63.76
2018-09-19T02:34:42.498Z,63.77
2018-09-19T02:35:42.529Z,63.73
2018-09-19T02:36:42.555Z,64.74
2018-09-19T02:37:42.507Z,64.52
2018-09-19T02:38:42.504Z,64.54
2018-09-19T02:39:42.540Z,63.95
2018-09-19T02:40:42.600Z,64.58
2018-09-19T02:41:42.494Z,63.87
2018-09-19T02:42:42.502Z,64.01
2018-09-19T02:43:42.576Z,64.01
2018-09-19T02:44:42.678Z,64.29
2018-09-19T02:45:42.539Z,65.36
2018-09-19T02:46:42.502Z,64.46
2018-09-19T02:47:42.870Z,64.59
2018-09-19T02:48:42.588Z,64.7
2018-09-19T02:49:42.605Z,65.38
2018-09-19T02:50:42.522Z,65.08
2018-09-19T02:51:42.569Z,65.08
2018-09-19T02:52:42.607Z,65.22
2018-09-19T02:53:42.645Z,65.42
2018-09-19T02:54:42.622Z,65.19
2018-09-19T02:55:42.548Z,65.05
2018-09-19T02:56:42.610Z,65.64
2018-09-19T02:57:42.569Z,65.83
2018-09-19T02:58:42.686Z,65.44
2018-09-19T02:59:42.603Z,65.9
2018-09-19T03:00:42.533Z,65.54
2018-09-19T03:01:42.541Z,64.89
2018-09-19T03:02:42.606Z,64.92
2018-09-19T03:03:42.501Z,64.67
2018-09-19T03:05:42.638Z,64.92
2018-09-19T03:06:42.526Z,64.85
2018-09-19T03:07:42.712Z,65.03
2018-09-19T03:08:42.579Z,65.15
2018-09-19T03:09:42.682Z,65.56
2018-09-19T03:10:42.661Z,65.65
2018-09-19T03:11:42.702Z,65.14
2018-09-19T03:12:42.496Z,66.2
2018-09-19T03:13:42.626Z,65.29
2018-09-19T03:14:42.648Z,65.02
2018-09-19T03:15:42.531Z,65.33
2018-09-19T03:16:42.700Z,65.93
2018-09-19T03:17:43.966Z,65.35
2018-09-19T03:18:42.532Z,65.65
2018-09-19T03:19:42.566Z,65.78
2018-09-19T03:20:42.554Z,65.33
2018-09-19T03:21:42.744Z,65.79
2018-09-19T03:22:42.520Z,66.02
2018-09-19T03:23:42.575Z,66.2
2018-09-19T03:24:42.525Z,65.84
2018-09-19T03:25:42.543Z,65.44
2018-09-19T03:26:42.668Z,65.89
2018-09-19T03:27:42.779Z,65.63
2018-09-19T03:28:42.552Z,65.31
2018-09-19T03:29:42.722Z,66.51
2018-09-19T03:30:42.641Z,65.92
2018-09-19T03:31:42.775Z,65.82
2018-09-19T03:32:42.617Z,65.56
2018-09-19T03:33:42.759Z,65.97
2018-09-19T03:34:42.578Z,65.96
2018-09-19T03:35:42.528Z,65.8
2018-09-19T03:36:42.848Z,65.38
2018-09-19T03:37:42.563Z,65.84
2018-09-19T03:38:42.709Z,67.09
2018-09-19T03:39:42.604Z,66.47
2018-09-19T03:40:42.616Z,67.12
2018-09-19T03:41:43.578Z,66.37
2018-09-19T03:42:42.554Z,67.45
2018-09-19T03:43:42.523Z,67.18
2018-09-19T03:44:42.568Z,67.49
2018-09-19T03:45:42.628Z,66.78
2018-09-19T03:46:42.603Z,67.53
2018-09-19T03:47:42.677Z,67.03
2018-09-19T03:48:42.717Z,66.93
2018-09-19T03:49:42.567Z,66.81
2018-09-19T03:50:42.559Z,66.55
2018-09-19T03:51:42.551Z,66.83
2018-09-19T03:52:42.537Z,66.2
2018-09-19T03:53:42.564Z,66.84
2018-09-19T03:54:42.697Z,66.98
2018-09-19T03:55:42.985Z,66.62
2018-09-19T03:56:42.547Z,66.65
2018-09-19T03:57:42.531Z,66.55
2018-09-19T03:58:42.577Z,66.5
2018-09-19T03:59:42.585Z,66.35
2018-09-19T04:00:42.539Z,66.31
2018-09-19T04:01:42.570Z,66.69
2018-09-19T04:02:42.605Z,66.63
2018-09-19T04:03:42.544Z,66.6
2018-09-19T04:04:42.557Z,67.18
2018-09-19T04:05:42.576Z,66.99
2018-09-19T04:06:42.560Z,67.26
2018-09-19T04:07:42.594Z,66.63
2018-09-19T04:08:42.579Z,66.83
2018-09-19T04:09:42.595Z,67.32
2018-09-19T04:10:43.114Z,66.96
2018-09-19T04:11:42.567Z,66.87
2018-09-19T04:12:42.636Z,67.12
2018-09-19T04:13:42.614Z,67.01
2018-09-19T04:14:42.664Z,67.19
2018-09-19T04:15:42.565Z,67.24
2018-09-19T04:16:42.761Z,66.83
2018-09-19T04:17:42.879Z,67.08
2018-09-19T04:18:42.657Z,66.59
2018-09-19T04:19:42.657Z,67.43
2018-09-19T04:20:42.576Z,66.85
2018-09-19T04:21:42.560Z,67.05
2018-09-19T04:22:42.616Z,67.66
2018-09-19T04:23:42.578Z,67.13
2018-09-19T04:24:42.577Z,66.9
2018-09-19T04:25:42.613Z,67.18
2018-09-19T04:26:42.730Z,67.41
2018-09-19T04:27:42.563Z,67.9
2018-09-19T04:28:42.613Z,67.63
2018-09-19T04:29:42.625Z,67.64
2018-09-19T04:30:42.598Z,67.75
2018-09-19T04:31:42.728Z,67.67
2018-09-19T04:32:42.750Z,66.99
2018-09-19T04:33:42.550Z,67.08
2018-09-19T04:34:42.776Z,67.18
2018-09-19T04:35:42.759Z,67.29
2018-09-19T04:36:42.604Z,67.85
2018-09-19T04:37:43.071Z,67.78
2018-09-19T04:38:42.826Z,67.89
2018-09-19T04:39:42.605Z,68.39
2018-09-19T04:40:42.790Z,68.39
2018-09-19T04:41:42.612Z,68.63
2018-09-19T04:42:42.575Z,68.36
2018-09-19T04:43:42.602Z,67.83
2018-09-19T04:44:42.804Z,67.47
2018-09-19T04:45:42.986Z,67.72
2018-09-19T04:46:42.718Z,68.5
2018-09-19T04:47:42.568Z,68.44
2018-09-19T04:48:42.680Z,68.83
2018-09-19T04:49:42.574Z,68.6
2018-09-19T04:50:42.759Z,68.82
2018-09-19T04:51:43.096Z,68.72
2018-09-19T04:52:42.644Z,68.95
2018-09-19T04:53:42.581Z,68.57
2018-09-19T04:54:42.590Z,68.25
2018-09-19T04:55:42.589Z,68.96
2018-09-19T04:56:42.837Z,68.59
2018-09-19T04:57:42.586Z,68.44
2018-09-19T04:58:42.736Z,68.44
2018-09-19T04:59:42.743Z,68.42
2018-09-19T05:00:42.672Z,67.99
2018-09-19T05:01:42.670Z,68.04
2018-09-19T05:02:42.616Z,68.17
2018-09-19T05:03:42.620Z,68.68
2018-09-19T05:04:42.666Z,69.07
2018-09-19T05:05:42.946Z,68.66
2018-09-19T05:06:42.685Z,69.36
2018-09-19T05:07:42.710Z,69.28
2018-09-19T05:08:42.599Z,69.27
2018-09-19T05:09:42.742Z,69.44
2018-09-19T05:10:43.028Z,69.67
2018-09-19T05:11:42.654Z,69.83
2018-09-19T05:12:42.649Z,70.37
2018-09-19T05:13:42.632Z,70.63
2018-09-19T05:14:42.627Z,70.48
2018-09-19T05:15:42.581Z,70.97
2018-09-19T05:16:42.694Z,71.74
2018-09-19T05:17:44.902Z,71.91
2018-09-19T05:18:42.631Z,71.69
2018-09-19T05:19:42.661Z,71.73
2018-09-19T05:20:42.628Z,71.64
2018-09-19T05:21:42.634Z,71.75
2018-09-19T05:22:42.626Z,71.73
2018-09-19T05:23:42.602Z,71.51
2018-09-19T05:24:42.639Z,71.62
2018-09-19T05:25:42.615Z,71.63
2018-09-19T05:26:42.674Z,71.75
2018-09-19T05:27:42.617Z,71.61
2018-09-19T05:28:42.651Z,71.8
2018-09-19T05:29:42.639Z,71.24
2018-09-19T05:30:43.072Z,71.73
2018-09-19T05:31:43.171Z,72.81
2018-09-19T05:32:42.646Z,72.15
2018-09-19T05:33:42.626Z,71.99
2018-09-19T05:34:42.629Z,72.04
2018-09-19T05:35:42.706Z,72.52
2018-09-19T05:36:42.637Z,72.59
2018-09-19T05:37:42.652Z,72.36
2018-09-19T05:38:42.700Z,71.87
2018-09-19T05:39:42.635Z,71.89
2018-09-19T05:40:42.777Z,71.48
2018-09-19T05:41:42.795Z,71.78
2018-09-19T05:42:42.779Z,72.14
2018-09-19T05:43:42.684Z,71.24
2018-09-19T05:44:42.940Z,71.4
2018-09-19T05:45:42.883Z,71.36
2018-09-19T05:46:42.695Z,71.3
2018-09-19T05:47:42.768Z,71.3
2018-09-19T05:48:42.753Z,70.86
2018-09-19T05:49:42.628Z,70.75
2018-09-19T05:50:42.742Z,70.85
2018-09-19T05:51:42.695Z,71.17
2018-09-19T05:52:42.670Z,70.78
2018-09-19T05:53:42.649Z,70.98
2018-09-19T05:54:42.653Z,71.15
2018-09-19T05:55:42.815Z,71.34
2018-09-19T05:56:42.743Z,71.81
2018-09-19T05:57:42.809Z,72.06
2018-09-19T05:58:42.754Z,72.01
2018-09-19T05:59:42.941Z,71.47
2018-09-19T06:00:42.626Z,71.2
2018-09-19T06:01:42.939Z,71.56
2018-09-19T06:02:42.639Z,70.83
2018-09-19T06:03:42.628Z,71.83
2018-09-19T06:04:42.854Z,71.44
2018-09-19T06:05:42.644Z,71.51
2018-09-19T06:06:42.752Z,71.98
2018-09-19T06:07:42.623Z,71.6
2018-09-19T06:08:42.653Z,71.11
2018-09-19T06:09:42.889Z,71.5
2018-09-19T06:10:42.614Z,71.07
2018-09-19T06:11:42.682Z,70.55
2018-09-19T06:12:43.145Z,71.23
2018-09-19T06:13:42.867Z,71.32
2018-09-19T06:14:42.700Z,70.86
2018-09-19T06:15:42.639Z,70.31
2018-09-19T06:16:42.755Z,71.06
2018-09-19T06:17:42.755Z,70.69
2018-09-19T06:18:43.107Z,70.66
2018-09-19T06:19:42.646Z,70.01
2018-09-19T06:20:42.680Z,70.4
2018-09-19T06:21:42.673Z,70.28
2018-09-19T06:22:42.672Z,69.88
2018-09-19T06:23:42.817Z,69.72
2018-09-19T06:24:42.664Z,69.83
2018-09-19T06:25:42.787Z,69.67
2018-09-19T06:26:43.115Z,70.39
2018-09-19T06:27:42.707Z,70.18
2018-09-19T06:28:42.851Z,70.66
2018-09-19T06:29:43.063Z,70.13
2018-09-19T06:30:42.677Z,70.39
2018-09-19T06:31:42.761Z,70.53
2018-09-19T06:32:42.984Z,70.27
2018-09-19T06:33:42.653Z,69.65
2018-09-19T06:34:42.661Z,69.29
2018-09-19T06:35:42.672Z,69.37
2018-09-19T06:36:43.089Z,69.27
2018-09-19T06:37:42.708Z,69.58
2018-09-19T06:38:42.867Z,69.12
2018-09-19T06:39:42.664Z,69.28
2018-09-19T06:40:44.008Z,69.41
2018-09-19T06:41:42.718Z,69.25
2018-09-19T06:42:42.674Z,69.71
2018-09-19T06:43:42.849Z,69.66
2018-09-19T06:44:42.670Z,69.41
2018-09-19T06:45:42.981Z,69.41
2018-09-19T06:46:42.891Z,69.04
2018-09-19T06:47:42.673Z,69.24
2018-09-19T06:48:42.679Z,68.99
2018-09-19T06:49:42.677Z,69.15
2018-09-19T06:50:42.686Z,69.43
2018-09-19T06:51:42.732Z,69.21
2018-09-19T06:52:42.660Z,68.91
2018-09-19T06:53:42.732Z,69.2
2018-09-19T06:54:42.755Z,69.2
2018-09-19T06:55:42.695Z,69.36
2018-09-19T06:56:42.867Z,69.08
2018-09-19T06:57:43.645Z,69.13
2018-09-19T06:58:42.822Z,68.89
2018-09-19T06:59:42.948Z,69.02
2018-09-19T07:00:42.801Z,69.24
2018-09-19T07:01:42.777Z,69.12
2018-09-19T07:02:42.839Z,68.62
2018-09-19T07:03:43.737Z,68.39
2018-09-19T07:04:42.923Z,68.53
2018-09-19T07:05:42.864Z,68.16
2018-09-19T07:06:42.664Z,68.06
2018-09-19T07:07:42.724Z,68.51
2018-09-19T07:08:42.766Z,68.39
2018-09-19T07:09:42.666Z,68.52
2018-09-19T07:10:43.816Z,68.18
2018-09-19T07:11:43.400Z,68.41
2018-09-19T07:12:42.822Z,67.92
2018-09-19T07:13:42.712Z,67.78
2018-09-19T07:14:42.903Z,67.85
2018-09-19T07:15:43.048Z,67.71
2018-09-19T07:16:42.740Z,67.79
2018-09-19T07:17:42.716Z,67.53
2018-09-19T07:18:42.902Z,67.22
2018-09-19T07:19:42.780Z,67.72
2018-09-19T07:20:43.096Z,67.34
2018-09-19T07:21:42.842Z,67.03
2018-09-19T07:22:42.792Z,67.33
2018-09-19T07:23:43.062Z,67.41
2018-09-19T07:24:42.700Z,67.18
2018-09-19T07:25:42.778Z,67.21
2018-09-19T07:26:42.704Z,66.97
2018-09-19T07:27:42.850Z,66.76
2018-09-19T07:28:42.821Z,67.02
2018-09-19T07:29:42.850Z,66.4
2018-09-19T07:30:42.859Z,66.61
2018-09-19T07:31:42.701Z,66.63
2018-09-19T07:32:42.903Z,66.19
2018-09-19T07:33:42.672Z,65.9
2018-09-19T07:34:42.878Z,66.05
2018-09-19T07:35:42.729Z,65.67
2018-09-19T07:36:43.103Z,65.53
2018-09-19T07:37:42.707Z,65.66
2018-09-19T07:38:42.807Z,65.74
2018-09-19T07:39:42.696Z,65.67
2018-09-19T07:40:42.836Z,65.3
2018-09-19T07:41:42.759Z,65.49
2018-09-19T07:42:42.695Z,65.04
2018-09-19T07:43:42.861Z,64.89
2018-09-19T07:44:42.690Z,64.96
2018-09-19T07:45:42.750Z,64.38
2018-09-19T07:46:43.991Z,64.21
2018-09-19T07:47:42.690Z,64.42
2018-09-19T07:48:42.791Z,64.64
2018-09-19T07:49:42.691Z,64.49
2018-09-19T07:50:43.604Z,64.65
2018-09-19T07:51:42.741Z,64.59
2018-09-19T07:52:42.726Z,64.54
2018-09-19T07:53:42.801Z,64.34
2018-09-19T07:54:43.100Z,64.27
2018-09-19T07:55:42.715Z,63.61
2018-09-19T07:56:42.761Z,63.75
2018-09-19T07:57:42.795Z,63.74
2018-09-19T07:58:42.706Z,63.43
2018-09-19T07:59:42.699Z,63.19
2018-09-19T08:00:43.704Z,63.1
2018-09-19T08:01:42.731Z,63.7
2018-09-19T08:02:42.723Z,63.38
2018-09-19T08:03:43.268Z,63.2
2018-09-19T08:04:42.713Z,63.36
2018-09-19T08:05:43.079Z,63.23
2018-09-19T08:06:42.810Z,63.09
2018-09-19T08:07:42.746Z,63.09
2018-09-19T08:08:42.767Z,62.96
2018-09-19T08:09:42.806Z,62.68
2018-09-19T08:10:42.827Z,62.77
2018-09-19T08:11:42.712Z,62.59
2018-09-19T08:12:42.717Z,62.83
2018-09-19T08:13:42.953Z,62.51
2018-09-19T08:14:42.836Z,62.88
2018-09-19T08:15:42.719Z,62.54
2018-09-19T08:16:42.974Z,62.34
2018-09-19T08:17:42.737Z,62.13
2018-09-19T08:18:42.719Z,62.18
2018-09-19T08:19:42.753Z,61.79
2018-09-19T08:20:42.724Z,61.88
2018-09-19T08:21:42.997Z,62.36
2018-09-19T08:22:42.948Z,62.02
2018-09-19T08:23:42.798Z,61.81
2018-09-19T08:24:42.701Z,61.33
2018-09-19T08:25:42.768Z,61.48
2018-09-19T08:26:42.708Z,61.37
2018-09-19T08:27:42.721Z,61.16
2018-09-19T08:28:42.803Z,61.04
2018-09-19T08:29:42.753Z,61.23
2018-09-19T08:30:42.716Z,60.9
2018-09-19T08:31:42.750Z,61.3
2018-09-19T08:32:42.933Z,61.39
2018-09-19T08:33:42.730Z,61.29
2018-09-19T08:34:42.716Z,61.49
2018-09-19T08:35:42.778Z,60.75
2018-09-19T08:36:42.736Z,60.67
2018-09-19T08:37:42.716Z,60.66
2018-09-19T08:38:42.706Z,60.61
2018-09-19T08:39:42.719Z,60.49
2018-09-19T08:40:43.671Z,60.01
2018-09-19T08:41:42.725Z,59.39
2018-09-19T08:42:43.111Z,59.65
2018-09-19T08:43:42.768Z,59.43
2018-09-19T08:44:43.018Z,59.56
2018-09-19T08:45:43.204Z,59.31
2018-09-19T08:46:42.788Z,59.23
2018-09-19T08:47:42.755Z,59.14
2018-09-19T08:48:42.828Z,59.23
2018-09-19T08:49:43.069Z,59.41
2018-09-19T08:50:43.629Z,59.91
2018-09-19T08:51:42.800Z,59.99
2018-09-19T08:52:42.738Z,59.34
2018-09-19T08:53:42.729Z,58.64
2018-09-19T08:54:42.973Z,58.95
2018-09-19T08:55:42.850Z,58.51
2018-09-19T08:56:42.821Z,58.55
2018-09-19T08:57:42.889Z,58.57
2018-09-19T08:58:42.978Z,58.85
2018-09-19T08:59:42.815Z,59.09
2018-09-19T09:00:42.893Z,58.13
2018-09-19T09:01:42.790Z,58.42
2018-09-19T09:02:43.436Z,58.43
2018-09-19T09:03:42.778Z,58.62
2018-09-19T09:04:43.183Z,58.4
2018-09-19T09:05:43.569Z,58.01
2018-09-19T09:06:42.757Z,58.2
2018-09-19T09:07:42.752Z,57.76
2018-09-19T09:08:42.971Z,58
2018-09-19T09:09:42.778Z,58.18
2018-09-19T09:10:43.097Z,57.97
2018-09-19T09:11:42.747Z,58.05
2018-09-19T09:12:43.211Z,57.84
2018-09-19T09:13:42.747Z,58.17
2018-09-19T09:14:42.779Z,58.08
2018-09-19T09:15:43.168Z,58
2018-09-19T09:16:42.928Z,57.41
2018-09-19T09:17:42.862Z,57.25
2018-09-19T09:18:43.187Z,57.22
2018-09-19T09:19:42.991Z,57
2018-09-19T09:20:42.860Z,56.62
2018-09-19T09:21:42.761Z,57.02
2018-09-19T09:22:42.760Z,56.64
2018-09-19T09:23:42.876Z,56.97
2018-09-19T09:24:43.120Z,56.28
2018-09-19T09:25:42.850Z,56.41
2018-09-19T09:26:43.100Z,56.15
2018-09-19T09:27:42.757Z,55.95
2018-09-19T09:28:42.805Z,55.89
2018-09-19T09:29:42.877Z,55.95
2018-09-19T09:30:42.755Z,55.85
2018-09-19T09:31:42.761Z,55.19
2018-09-19T09:32:42.748Z,55.11
2018-09-19T09:33:42.783Z,55.3
2018-09-19T09:34:42.784Z,56.09
2018-09-19T09:35:43.099Z,56.06
2018-09-19T09:36:42.951Z,55.93
2018-09-19T09:37:42.744Z,55.04
2018-09-19T09:38:42.785Z,55.58
2018-09-19T09:39:42.771Z,55.16
2018-09-19T09:40:42.842Z,54.71
2018-09-19T09:41:42.821Z,54.55
2018-09-19T09:42:43.264Z,54.2
2018-09-19T09:43:42.846Z,54.23
2018-09-19T09:44:42.841Z,53.9
2018-09-19T09:45:42.797Z,53.63
2018-09-19T09:46:42.792Z,53.82
2018-09-19T09:47:42.811Z,53.37
2018-09-19T09:48:43.183Z,53.31
2018-09-19T09:49:42.972Z,53.15
2018-09-19T09:50:42.752Z,53.2
2018-09-19T09:51:42.851Z,53.7
2018-09-19T09:52:42.805Z,53.69
2018-09-19T09:53:42.803Z,53.52
2018-09-19T09:54:42.792Z,53.38
2018-09-19T09:55:42.842Z,53.42
2018-09-19T09:56:42.777Z,53.42
2018-09-19T09:57:42.828Z,53.19
2018-09-19T09:58:42.786Z,52.65
2018-09-19T09:59:42.794Z,52.67
2018-09-19T10:00:42.837Z,52.77
2018-09-19T10:01:43.231Z,52.79
2018-09-19T10:02:42.803Z,52.79
2018-09-19T10:03:42.832Z,52.17
2018-09-19T10:04:42.772Z,52.36
2018-09-19T10:05:43.179Z,51.48
2018-09-19T10:06:43.001Z,51.98
2018-09-19T10:07:43.041Z,51.85
2018-09-19T10:08:43.114Z,51.51
2018-09-19T10:09:42.768Z,51.2
2018-09-19T10:10:42.831Z,50.64
2018-09-19T10:11:42.827Z,51.41
2018-09-19T10:12:43.706Z,50.59
2018-09-19T10:13:43.161Z,50.8
2018-09-19T10:14:42.783Z,50.42
2018-09-19T10:15:43.132Z,50.55
2018-09-19T10:16:42.834Z,49.94
2018-09-19T10:17:42.884Z,49.56
2018-09-19T10:18:42.845Z,50.52
2018-09-19T10:19:42.818Z,50.47
2018-09-19T10:20:42.817Z,50.73
2018-09-19T10:21:43.349Z,50.94
2018-09-19T10:22:42.846Z,49.92
2018-09-19T10:23:42.853Z,49.93
2018-09-19T10:24:42.847Z,49.69
2018-09-19T10:25:43.223Z,49.95
2018-09-19T10:26:42.821Z,50.2
2018-09-19T10:27:42.828Z,49.67
2018-09-19T10:28:42.844Z,48.93
2018-09-19T10:29:43.280Z,49.27
2018-09-19T10:30:43.075Z,49.61
2018-09-19T10:31:42.845Z,49.51
2018-09-19T10:32:42.826Z,49.48
2018-09-19T10:33:43.002Z,49.47
2018-09-19T10:34:43.112Z,48.89
2018-09-19T10:35:42.831Z,49.17
2018-09-19T10:36:43.158Z,48.9
2018-09-19T10:37:43.092Z,48.33
2018-09-19T10:38:42.931Z,48.03
2018-09-19T10:39:42.888Z,48.93
2018-09-19T10:40:43.056Z,48.74
2018-09-19T10:41:42.880Z,48.74
2018-09-19T10:42:43.228Z,48.38
2018-09-19T10:43:42.901Z,48.65
2018-09-19T10:44:42.851Z,48.71
2018-09-19T10:45:42.866Z,48.86
2018-09-19T10:46:43.068Z,49.17
2018-09-19T10:47:43.100Z,49.14
2018-09-19T10:48:42.864Z,48.8
2018-09-19T10:49:43.290Z,48.3
2018-09-19T10:50:43.054Z,47.94
2018-09-19T10:51:43.023Z,47.68
2018-09-19T10:52:42.953Z,47.55
2018-09-19T10:53:43.171Z,47.62
2018-09-19T10:54:42.865Z,47.67
2018-09-19T10:55:42.924Z,46.81
2018-09-19T10:56:42.932Z,46.46
2018-09-19T10:57:43.026Z,46.88
2018-09-19T10:58:42.894Z,46.45
2018-09-19T10:59:42.878Z,45.19
2018-09-19T11:00:42.908Z,45.13
2018-09-19T11:01:42.834Z,45.82
2018-09-19T11:02:42.829Z,46.22
2018-09-19T11:03:42.872Z,46.41
2018-09-19T11:04:43.570Z,46.02
2018-09-19T11:05:42.871Z,46.4
2018-09-19T11:06:42.833Z,46.05
2018-09-19T11:07:43.200Z,45.22
2018-09-19T11:08:42.902Z,44.76
2018-09-19T11:09:42.875Z,44.61
2018-09-19T11:10:42.950Z,44.94
2018-09-19T11:11:42.959Z,45.92
2018-09-19T11:12:42.863Z,45.78
2018-09-19T11:13:42.873Z,45.14
2018-09-19T11:14:42.873Z,44.93
2018-09-19T11:15:43.472Z,45.09
2018-09-19T11:16:42.879Z,44.42
2018-09-19T11:17:42.857Z,43.13
2018-09-19T11:18:42.849Z,43.88
2018-09-19T11:19:42.833Z,43.97
2018-09-19T11:20:42.881Z,44.16
2018-09-19T11:21:42.866Z,44.48
2018-09-19T11:22:43.004Z,43.37
2018-09-19T11:23:42.885Z,43.42
2018-09-19T11:24:42.865Z,42.89
2018-09-19T11:25:43.001Z,43.24
2018-09-19T11:26:42.861Z,43.41
2018-09-19T11:27:48.861Z,43
2018-09-19T11:28:42.875Z,42.41
2018-09-19T11:29:42.922Z,42.84
2018-09-19T11:30:42.960Z,43.67
2018-09-19T11:31:42.909Z,43.57
2018-09-19T11:32:43.210Z,43.02
2018-09-19T11:33:43.062Z,42.87
2018-09-19T11:34:43.028Z,42.3
2018-09-19T11:35:43.192Z,43.1
2018-09-19T11:36:42.867Z,42.99
2018-09-19T11:37:42.873Z,43.42
2018-09-19T11:38:43.316Z,42.48
2018-09-19T11:39:43.006Z,42.33
2018-09-19T11:40:43.108Z,41.77
2018-09-19T11:41:42.867Z,42.34
2018-09-19T11:42:43.259Z,42.3
2018-09-19T11:43:44.086Z,42.16
2018-09-19T11:44:43.151Z,42.82
2018-09-19T11:45:43.300Z,43.04
2018-09-19T11:46:43.262Z,41.74
2018-09-19T11:47:43.187Z,41.25
2018-09-19T11:48:44.594Z,42.22
2018-09-19T11:49:44.320Z,42.69
2018-09-19T11:50:43.306Z,42.46
2018-09-19T11:51:43.113Z,42.11
2018-09-19T11:52:43.123Z,42.41
2018-09-19T11:53:43.230Z,41.85
2018-09-19T11:54:43.238Z,41.51
2018-09-19T11:55:43.226Z,41.66
2018-09-19T11:56:43.040Z,42.23
2018-09-19T11:57:43.791Z,42.17
2018-09-19T11:58:44.409Z,43.03
2018-09-19T11:59:43.147Z,43.48
2018-09-19T12:00:43.076Z,42.31
2018-09-19T12:01:43.277Z,43.02
2018-09-19T12:02:43.071Z,42.37
2018-09-19T12:03:43.188Z,42.11
2018-09-19T12:04:43.491Z,42.57
2018-09-19T12:05:43.417Z,42.71
2018-09-19T12:06:43.186Z,42.04
2018-09-19T12:07:43.118Z,42.38
2018-09-19T12:08:43.291Z,41.82
2018-09-19T12:09:43.528Z,42.33
2018-09-19T12:10:43.236Z,41.48
2018-09-19T12:11:43.130Z,42
2018-09-19T12:12:43.270Z,42.54
2018-09-19T12:13:43.120Z,41.29
2018-09-19T12:14:43.072Z,41.53
2018-09-19T12:15:43.289Z,41.15
2018-09-19T12:16:43.109Z,40.75
2018-09-19T12:17:43.384Z,41.36
2018-09-19T12:18:43.173Z,41.66
2018-09-19T12:19:43.304Z,41.98
2018-09-19T12:20:43.148Z,41.75
2018-09-19T12:21:43.319Z,42.01
2018-09-19T12:22:43.008Z,41.51
2018-09-19T12:23:43.056Z,40.39
2018-09-19T12:24:43.335Z,40.86
2018-09-19T12:25:43.174Z,41.16
2018-09-19T12:26:43.399Z,40.87
2018-09-19T12:27:43.136Z,41.4
2018-09-19T12:28:42.981Z,41.11
2018-09-19T12:29:42.960Z,41.5
2018-09-19T12:30:43.475Z,40.89
2018-09-19T12:31:43.143Z,41.18
2018-09-19T12:32:43.364Z,41.5
2018-09-19T12:33:43.111Z,41.07
2018-09-19T12:34:43.124Z,40.83
2018-09-19T12:35:43.337Z,41.58
2018-09-19T12:36:43.100Z,41.12
2018-09-19T12:37:43.835Z,40.62
2018-09-19T12:38:42.946Z,40.16
2018-09-19T12:39:43.564Z,39.97
2018-09-19T12:40:43.093Z,40.59
2018-09-19T12:41:43.150Z,40.61
2018-09-19T12:42:43.033Z,41.4
2018-09-19T12:43:42.990Z,40.62
2018-09-19T12:44:43.299Z,40.5
2018-09-19T12:45:43.218Z,40.86
2018-09-19T12:46:43.111Z,39.76
2018-09-19T12:47:43.015Z,39.78
2018-09-19T12:48:44.203Z,39.72
2018-09-19T12:49:42.980Z,39.79
2018-09-19T12:50:43.107Z,39.94
2018-09-19T12:51:43.098Z,39.63
2018-09-19T12:52:43.081Z,39.91
2018-09-19T12:53:42.937Z,39.65
2018-09-19T12:54:43.241Z,39.36
2018-09-19T12:55:43.033Z,39.65
2018-09-19T12:56:43.353Z,39.51